createdAt,value
2023-06-07T00:01:09.516Z,72.97
2023-06-07T00:03:42.555Z,74.50
2023-06-07T00:06:15.499Z,75.10
2023-06-07T00:08:47.551Z,75.94
2023-06-07T00:11:21.948Z,76.83
2023-06-07T00:13:56.789Z,78.51
2023-06-07T00:16:28.822Z,80.52
2023-06-07T00:19:03.248Z,82.70
2023-06-07T00:21:35.400Z,83.61
2023-06-07T00:24:08.290Z,82.94
2023-06-07T00:26:41.474Z,80.85
2023-06-07T00:29:14.910Z,80.08
2023-06-07T00:31:47.062Z,78.08
2023-06-07T00:34:19.260Z,76.47
2023-06-07T00:36:51.480Z,75.14
2023-06-07T00:39:25.935Z,74.22
2023-06-07T00:41:58.064Z,73.26
2023-06-07T00:44:30.095Z,73.29
2023-06-07T00:47:02.223Z,74.26
2023-06-07T00:49:34.198Z,75.56
2023-06-07T00:52:07.688Z,77.30
2023-06-07T00:54:39.911Z,78.88
2023-06-07T00:57:11.875Z,79.56
2023-06-07T00:59:43.910Z,79.97
2023-06-07T01:02:16.775Z,79.77
2023-06-07T01:04:51.376Z,79.50
2023-06-07T01:07:26.357Z,80.02
2023-06-07T01:09:58.475Z,81.66
2023-06-07T01:12:31.863Z,83.50
2023-06-07T01:15:04.713Z,86.79
2023-06-07T01:17:42.575Z,91.09
2023-06-07T01:20:16.117Z,93.38
2023-06-07T01:22:50.442Z,93.50
2023-06-07T01:25:23.175Z,92.33
2023-06-07T01:27:58.492Z,91.61
2023-06-07T01:30:33.008Z,91.76
2023-06-07T01:33:05.987Z,93.49
2023-06-07T01:35:37.996Z,96.47
2023-06-07T01:38:10.006Z,99.12
2023-06-07T01:40:42.554Z,99.82
2023-06-07T01:43:14.888Z,99.64
2023-06-07T01:45:48.018Z,98.07
2023-06-07T01:48:20.280Z,96.20
2023-06-07T01:50:52.359Z,95.45
2023-06-07T01:53:24.399Z,95.21
2023-06-07T01:55:59.187Z,95.84
2023-06-07T01:58:34.049Z,97.11
2023-06-07T02:01:12.094Z,98.39
2023-06-07T02:03:46.065Z,98.11
2023-06-07T02:06:19.375Z,97.15
2023-06-07T02:08:54.265Z,95.95
2023-06-07T02:11:27.289Z,95.07
2023-06-07T02:13:59.787Z,94.57
2023-06-07T02:16:36.951Z,95.23
2023-06-07T02:19:09.345Z,96.54
2023-06-07T02:21:51.079Z,97.83
2023-06-07T02:24:23.059Z,98.10
2023-06-07T02:26:57.055Z,97.00
2023-06-07T02:29:29.167Z,95.81
2023-06-07T02:32:02.242Z,95.03
2023-06-07T02:34:34.774Z,94.91
2023-06-07T02:37:07.595Z,95.67
2023-06-07T02:39:39.665Z,96.83
2023-06-07T02:42:12.343Z,97.83
2023-06-07T02:44:44.355Z,98.57
2023-06-07T02:47:16.473Z,98.77
2023-06-07T02:49:49.342Z,98.35
2023-06-07T02:52:21.392Z,97.60
2023-06-07T02:54:53.469Z,96.28
2023-06-07T02:57:25.645Z,95.97
2023-06-07T02:59:57.863Z,96.14
2023-06-07T03:02:35.383Z,96.20
2023-06-07T03:05:08.563Z,96.38
2023-06-07T03:07:42.006Z,96.00
2023-06-07T03:10:14.948Z,95.64
2023-06-07T03:12:47.589Z,94.91
2023-06-07T03:15:19.751Z,95.08
2023-06-07T03:17:52.064Z,95.78
2023-06-07T03:20:26.415Z,96.44
2023-06-07T03:22:59.125Z,96.90
2023-06-07T03:25:31.540Z,96.08
2023-06-07T03:28:04.198Z,95.11
2023-06-07T03:30:41.721Z,94.22
2023-06-07T03:33:14.319Z,93.93
2023-06-07T03:35:46.965Z,93.97
2023-06-07T03:38:22.756Z,94.78
2023-06-07T03:40:56.720Z,98.33
2023-06-07T03:43:29.568Z,100.00
2023-06-07T03:46:01.716Z,100.00
2023-06-07T03:48:34.384Z,100.00
2023-06-07T03:51:07.215Z,99.33
2023-06-07T03:53:40.429Z,99.90
2023-06-07T03:56:12.484Z,100.00
2023-06-07T03:58:46.641Z,100.00
2023-06-07T04:01:21.144Z,100.00
2023-06-07T04:03:53.547Z,100.00
2023-06-07T04:06:26.657Z,100.00
2023-06-07T04:09:00.819Z,100.00
2023-06-07T04:11:33.002Z,100.00
2023-06-07T04:14:05.138Z,100.00
2023-06-07T04:16:37.701Z,100.00
2023-06-07T04:19:09.896Z,100.00
2023-06-07T04:21:42.812Z,100.00
2023-06-07T04:24:16.573Z,100.00
2023-06-07T04:26:51.292Z,100.00
2023-06-07T04:29:27.217Z,100.00
2023-06-07T04:31:59.848Z,100.00
2023-06-07T04:34:34.552Z,100.00
2023-06-07T04:37:07.037Z,100.00
2023-06-07T04:39:42.393Z,100.00
2023-06-07T04:42:18.046Z,100.00
2023-06-07T04:44:51.779Z,100.00
2023-06-07T04:47:26.528Z,100.00
2023-06-07T04:50:00.753Z,100.00
2023-06-07T04:52:34.103Z,98.54
2023-06-07T04:55:09.108Z,90.43
2023-06-07T04:57:42.054Z,83.19
2023-06-07T05:00:18.698Z,83.08
2023-06-07T05:02:51.878Z,78.34
2023-06-07T05:05:24.887Z,74.83
2023-06-07T05:07:57.556Z,70.58
2023-06-07T05:10:29.672Z,68.53
2023-06-07T05:13:04.144Z,64.95
2023-06-07T05:15:36.246Z,64.25
2023-06-07T05:18:09.130Z,64.73
2023-06-07T05:20:41.382Z,61.21
2023-06-07T05:23:17.920Z,62.11
2023-06-07T05:25:53.176Z,62.87
2023-06-07T05:28:25.515Z,59.90
2023-06-07T05:31:00.597Z,57.77
2023-06-07T05:33:34.455Z,58.27
2023-06-07T05:36:07.534Z,58.10
2023-06-07T05:38:40.226Z,57.93
2023-06-07T05:41:12.546Z,55.78
2023-06-07T05:43:45.082Z,56.39
2023-06-07T05:46:17.308Z,55.21
2023-06-07T05:48:51.606Z,54.73
2023-06-07T05:51:25.960Z,54.93
2023-06-07T05:53:58.042Z,52.72
2023-06-07T05:56:30.480Z,53.02
2023-06-07T05:59:03.021Z,52.35
2023-06-07T06:01:36.332Z,51.75
2023-06-07T06:04:08.645Z,51.08
2023-06-07T06:06:40.743Z,49.14
2023-06-07T06:09:13.971Z,50.19
2023-06-07T06:11:46.681Z,51.42
2023-06-07T06:14:19.055Z,51.86
2023-06-07T06:16:51.219Z,50.86
2023-06-07T06:19:23.628Z,49.93
2023-06-07T06:21:55.951Z,49.84
2023-06-07T06:24:28.445Z,49.60
2023-06-07T06:27:01.018Z,50.03
2023-06-07T06:29:33.452Z,49.87
2023-06-07T06:32:06.149Z,48.65
2023-06-07T06:34:38.462Z,48.88
2023-06-07T06:37:10.652Z,48.23
2023-06-07T06:39:43.339Z,46.72
2023-06-07T06:42:16.691Z,47.27
2023-06-07T06:45:14.635Z,46.12
2023-06-07T06:47:46.712Z,45.15
2023-06-07T06:50:31.981Z,42.68
2023-06-07T06:53:05.686Z,43.16
2023-06-07T06:55:37.709Z,42.37
2023-06-07T06:58:10.257Z,39.98
2023-06-07T07:00:43.133Z,40.16
2023-06-07T07:03:16.007Z,39.62
2023-06-07T07:05:48.448Z,40.15
2023-06-07T07:08:21.303Z,40.06
2023-06-07T07:10:53.981Z,39.01
2023-06-07T07:13:26.085Z,37.08
2023-06-07T07:15:58.252Z,36.28
2023-06-07T07:18:30.402Z,36.49
2023-06-07T07:21:02.727Z,36.33
2023-06-07T07:23:34.874Z,36.46
2023-06-07T07:26:07.361Z,36.33
2023-06-07T07:28:39.691Z,35.34
2023-06-07T07:31:12.398Z,35.20
2023-06-07T07:33:44.548Z,34.72
2023-06-07T07:36:18.987Z,34.08
2023-06-07T07:38:53.244Z,34.09
2023-06-07T07:41:25.659Z,33.94
2023-06-07T07:43:58.278Z,33.45
2023-06-07T07:46:30.620Z,32.96
2023-06-07T07:49:02.629Z,32.86
2023-06-07T07:51:35.171Z,32.83
2023-06-07T07:54:07.633Z,33.03
2023-06-07T07:56:39.633Z,32.92
2023-06-07T07:59:11.861Z,32.35
2023-06-07T08:01:44.142Z,32.41
2023-06-07T08:04:16.356Z,31.75
2023-06-07T08:06:48.860Z,32.61
2023-06-07T08:09:21.323Z,32.23
2023-06-07T08:11:53.456Z,31.70
2023-06-07T08:14:25.999Z,31.46
2023-06-07T08:16:58.379Z,31.43
2023-06-07T08:19:30.355Z,31.56
2023-06-07T08:22:02.446Z,31.16
2023-06-07T08:24:34.456Z,30.91
2023-06-07T08:27:07.415Z,31.05
2023-06-07T08:29:39.387Z,31.28
2023-06-07T08:32:13.115Z,31.33
2023-06-07T08:34:45.153Z,31.39
2023-06-07T08:37:17.191Z,31.11
2023-06-07T08:39:49.340Z,31.07
2023-06-07T08:42:21.472Z,30.94
2023-06-07T08:44:53.583Z,31.21
2023-06-07T08:47:26.697Z,31.37
2023-06-07T08:49:59.491Z,31.65
2023-06-07T08:52:31.897Z,31.73
2023-06-07T08:55:08.356Z,31.81
2023-06-07T08:57:40.397Z,31.66
2023-06-07T09:00:14.175Z,31.65
2023-06-07T09:02:46.576Z,31.03
2023-06-07T09:05:19.516Z,31.34
2023-06-07T09:07:52.021Z,31.29
2023-06-07T09:10:26.863Z,31.13
2023-06-07T09:13:00.818Z,31.24
2023-06-07T09:15:34.314Z,31.46
2023-06-07T09:18:06.862Z,32.15
2023-06-07T09:20:39.623Z,32.02
2023-06-07T09:23:14.820Z,31.47
2023-06-07T09:25:47.148Z,31.92
2023-06-07T09:28:19.221Z,32.07
2023-06-07T09:30:57.252Z,31.63
2023-06-07T09:33:35.264Z,30.42
2023-06-07T09:36:09.390Z,29.83
2023-06-07T09:38:43.450Z,29.39
2023-06-07T09:41:16.145Z,29.23
2023-06-07T09:43:52.685Z,29.46
2023-06-07T09:46:24.911Z,29.22
2023-06-07T09:48:58.013Z,29.12
2023-06-07T09:51:30.767Z,29.10
2023-06-07T09:54:06.682Z,29.24
2023-06-07T09:56:40.744Z,28.47
2023-06-07T09:59:14.151Z,28.42
2023-06-07T10:01:47.262Z,28.42
2023-06-07T10:04:19.672Z,28.76
2023-06-07T10:06:52.699Z,29.03
2023-06-07T10:09:25.155Z,28.82
2023-06-07T10:11:57.998Z,28.59
2023-06-07T10:14:34.571Z,28.80
2023-06-07T10:17:08.734Z,28.34
2023-06-07T10:19:43.269Z,28.75
2023-06-07T10:22:17.919Z,29.41
2023-06-07T10:24:55.840Z,28.82
2023-06-07T10:27:28.141Z,28.44
2023-06-07T10:30:05.296Z,27.76
2023-06-07T10:32:38.461Z,27.38
2023-06-07T10:35:15.811Z,27.35
2023-06-07T10:37:52.143Z,28.40
2023-06-07T10:40:26.532Z,27.84
2023-06-07T10:42:59.419Z,28.45
2023-06-07T10:45:31.637Z,27.42
2023-06-07T10:48:29.428Z,27.28
2023-06-07T10:51:01.616Z,27.09
2023-06-07T10:53:57.298Z,27.16
2023-06-07T10:56:33.921Z,27.28
2023-06-07T10:59:25.096Z,27.08
2023-06-07T11:01:57.349Z,26.76
2023-06-07T11:04:58.947Z,26.63
2023-06-07T11:07:32.838Z,26.74
2023-06-07T11:10:42.295Z,26.77
2023-06-07T11:13:14.781Z,26.43
2023-06-07T11:15:47.132Z,26.52
2023-06-07T11:18:19.501Z,27.01
2023-06-07T11:20:53.182Z,27.66
2023-06-07T11:23:33.358Z,26.85
2023-06-07T11:26:12.703Z,27.31
2023-06-07T11:28:45.007Z,27.02
2023-06-07T11:31:17.135Z,26.42
2023-06-07T11:33:50.285Z,25.92
2023-06-07T11:36:22.699Z,26.88
2023-06-07T11:38:57.357Z,27.57
2023-06-07T11:41:29.853Z,27.48
2023-06-07T11:44:03.137Z,26.77
2023-06-07T11:46:37.278Z,26.48
2023-06-07T11:49:11.368Z,26.16
2023-06-07T11:51:44.937Z,26.40
2023-06-07T11:54:17.174Z,25.86
2023-06-07T11:56:49.147Z,25.50
2023-06-07T11:59:21.400Z,25.33
2023-06-07T12:01:57.038Z,25.03
2023-06-07T12:04:29.085Z,24.36
2023-06-07T12:07:01.029Z,24.52
2023-06-07T12:09:32.954Z,24.41
2023-06-07T12:12:05.129Z,24.72
2023-06-07T12:14:39.926Z,24.89
2023-06-07T12:17:12.920Z,24.70
2023-06-07T12:19:45.077Z,24.83
2023-06-07T12:22:17.495Z,25.17
2023-06-07T12:24:49.494Z,25.47
2023-06-07T12:27:22.308Z,25.44
2023-06-07T12:29:59.279Z,24.92
2023-06-07T12:32:32.962Z,24.93
2023-06-07T12:35:07.191Z,24.86
2023-06-07T12:37:39.703Z,24.75
2023-06-07T12:40:12.595Z,24.75
2023-06-07T12:42:44.551Z,24.92
2023-06-07T12:45:17.631Z,25.01
2023-06-07T12:47:49.923Z,25.07
2023-06-07T12:50:22.021Z,24.92
2023-06-07T12:52:54.473Z,24.62
2023-06-07T12:55:26.528Z,24.75
2023-06-07T13:09:22.828Z,23.93
2023-06-07T13:11:55.406Z,24.06
2023-06-07T13:14:28.722Z,24.40
2023-06-07T13:17:00.906Z,24.58
2023-06-07T13:19:33.120Z,24.75
2023-06-07T13:22:05.148Z,24.43
2023-06-07T13:24:37.568Z,24.18
2023-06-07T13:27:11.157Z,24.01
2023-06-07T13:29:43.502Z,23.89
2023-06-07T13:32:15.648Z,23.95
2023-06-07T13:34:47.710Z,23.85
2023-06-07T13:37:22.098Z,23.78
2023-06-07T13:39:54.009Z,24.01
2023-06-07T13:42:25.977Z,23.77
2023-06-07T13:44:57.922Z,23.85
2023-06-07T13:47:32.007Z,24.12
2023-06-07T13:50:06.665Z,24.93
2023-06-07T13:52:39.194Z,25.67
2023-06-07T13:55:12.481Z,25.88
2023-06-07T13:57:44.803Z,25.84
2023-06-07T14:00:19.578Z,26.08
2023-06-07T14:02:52.098Z,25.59
2023-06-07T14:05:24.671Z,25.94
2023-06-07T14:07:57.193Z,26.35
2023-06-07T14:10:29.568Z,26.30
2023-06-07T14:13:02.248Z,26.44
2023-06-07T14:15:34.131Z,26.29
2023-06-07T14:18:06.593Z,26.58
2023-06-07T14:20:38.962Z,25.56
2023-06-07T14:23:11.731Z,25.13
2023-06-07T14:25:43.735Z,25.17
2023-06-07T14:28:18.394Z,25.91
2023-06-07T14:30:52.169Z,26.54
2023-06-07T14:33:24.543Z,27.24
2023-06-07T14:35:56.869Z,27.26
2023-06-07T14:38:28.950Z,27.49
2023-06-07T14:41:01.606Z,27.41
2023-06-07T14:43:34.158Z,27.51
2023-06-07T14:46:06.111Z,27.42
2023-06-07T14:48:38.615Z,27.45
2023-06-07T14:51:10.853Z,27.82
2023-06-07T14:53:42.902Z,27.20
2023-06-07T14:56:14.928Z,27.47
2023-06-07T14:58:47.293Z,27.53
2023-06-07T15:01:19.509Z,27.89
2023-06-07T15:03:51.825Z,28.21
2023-06-07T15:06:23.988Z,28.31
2023-06-07T15:08:56.306Z,28.12
2023-06-07T15:11:29.190Z,28.15
2023-06-07T15:14:01.498Z,28.18
2023-06-07T15:16:33.675Z,28.38
2023-06-07T15:19:06.053Z,28.44
2023-06-07T15:21:38.616Z,28.90
2023-06-07T15:24:11.191Z,29.05
2023-06-07T15:26:43.484Z,29.31
2023-06-07T15:29:15.504Z,29.16
2023-06-07T15:31:47.687Z,29.14
2023-06-07T15:34:20.030Z,29.46
2023-06-07T15:36:52.265Z,29.95
2023-06-07T15:39:24.314Z,30.47
2023-06-07T15:41:56.426Z,30.74
2023-06-07T15:44:29.456Z,31.12
2023-06-07T15:47:02.410Z,31.39
2023-06-07T15:49:34.731Z,31.57
2023-06-07T15:52:07.477Z,31.60
2023-06-07T15:54:39.691Z,31.62
2023-06-07T15:57:12.700Z,31.56
2023-06-07T15:59:44.960Z,31.75
2023-06-07T16:02:19.859Z,31.77
2023-06-07T16:04:51.972Z,32.03
2023-06-07T16:07:24.906Z,31.94
2023-06-07T16:09:57.628Z,31.93
2023-06-07T16:12:29.831Z,32.37
2023-06-07T16:15:03.223Z,32.34
2023-06-07T16:17:35.376Z,32.31
2023-06-07T16:20:09.364Z,32.30
2023-06-07T16:22:41.267Z,32.42
2023-06-07T16:25:13.482Z,32.38
2023-06-07T16:27:45.542Z,32.53
2023-06-07T16:30:18.759Z,32.51
2023-06-07T16:32:51.778Z,32.63
2023-06-07T16:35:24.078Z,32.62
2023-06-07T16:37:56.232Z,32.92
2023-06-07T16:40:28.505Z,32.96
2023-06-07T16:43:00.646Z,33.01
2023-06-07T16:45:32.810Z,33.05
2023-06-07T16:48:04.937Z,33.10
2023-06-07T16:50:37.412Z,33.06
2023-06-07T16:53:09.662Z,33.36
2023-06-07T16:55:41.798Z,33.46
2023-06-07T16:58:14.064Z,33.59
2023-06-07T17:00:46.335Z,33.66
2023-06-07T17:03:19.778Z,33.61
2023-06-07T17:05:52.035Z,33.58
2023-06-07T17:08:23.939Z,33.82
2023-06-07T17:10:55.977Z,34.27
2023-06-07T17:13:28.192Z,34.42
2023-06-07T17:16:00.385Z,34.89
2023-06-07T17:18:32.658Z,35.27
2023-06-07T17:21:05.810Z,35.71
2023-06-07T17:23:37.866Z,36.05
2023-06-07T17:26:10.198Z,36.50
2023-06-07T17:28:42.137Z,36.32
2023-06-07T17:31:14.254Z,36.18
2023-06-07T17:33:46.749Z,36.25
2023-06-07T17:36:19.813Z,36.05
2023-06-07T17:38:52.425Z,35.77
2023-06-07T17:41:24.776Z,35.74
2023-06-07T17:43:59.541Z,35.91
2023-06-07T17:46:32.499Z,36.10
2023-06-07T17:49:04.643Z,36.21
2023-06-07T17:51:37.373Z,36.28
2023-06-07T17:54:09.398Z,36.39
2023-06-07T17:56:41.450Z,36.58
2023-06-07T17:59:13.617Z,36.62
2023-06-07T18:01:47.264Z,36.72
2023-06-07T18:04:19.621Z,36.71
2023-06-07T18:06:52.125Z,36.67
2023-06-07T18:09:24.081Z,36.62
2023-06-07T18:11:55.999Z,36.53
2023-06-07T18:14:28.036Z,36.36
2023-06-07T18:17:00.519Z,36.43
2023-06-07T18:19:32.528Z,36.41
2023-06-07T18:22:05.539Z,36.46
2023-06-07T18:24:38.177Z,36.49
2023-06-07T18:27:11.079Z,36.53
2023-06-07T18:29:43.065Z,36.63
2023-06-07T18:32:14.986Z,36.58
2023-06-07T18:34:47.033Z,36.66
2023-06-07T18:37:19.234Z,36.65
2023-06-07T18:39:51.333Z,36.76
2023-06-07T18:42:23.558Z,36.83
2023-06-07T18:44:55.724Z,36.72
2023-06-07T18:47:27.741Z,36.83
2023-06-07T18:50:00.462Z,36.87
2023-06-07T18:52:32.375Z,37.12
2023-06-07T18:55:06.699Z,37.23
2023-06-07T18:57:39.094Z,37.25
2023-06-07T19:00:13.221Z,37.17
2023-06-07T19:02:46.679Z,37.21
2023-06-07T19:05:19.607Z,37.44
2023-06-07T19:07:52.290Z,37.50
2023-06-07T19:10:24.854Z,38.56
2023-06-07T19:12:57.009Z,45.01
2023-06-07T19:15:29.822Z,45.19
2023-06-07T19:18:06.590Z,43.89
2023-06-07T19:20:40.537Z,44.53
2023-06-07T19:23:13.644Z,43.89
2023-06-07T19:25:46.182Z,43.98
2023-06-07T19:28:18.159Z,44.66
2023-06-07T19:30:50.197Z,44.97
2023-06-07T19:33:22.332Z,44.67
2023-06-07T19:35:54.458Z,44.62
2023-06-07T19:38:26.417Z,44.65
2023-06-07T19:40:58.462Z,44.55
2023-06-07T19:43:31.102Z,44.87
2023-06-07T19:46:02.975Z,45.66
2023-06-07T19:48:34.985Z,45.53
2023-06-07T19:51:08.727Z,45.99
2023-06-07T19:53:41.042Z,45.67
2023-06-07T19:56:13.083Z,45.78
2023-06-07T19:58:45.334Z,46.02
2023-06-07T20:01:17.424Z,46.03
2023-06-07T20:03:49.501Z,46.10
2023-06-07T20:06:21.663Z,46.08
2023-06-07T20:08:53.617Z,46.30
2023-06-07T20:11:26.674Z,46.35
2023-06-07T20:13:58.805Z,46.23
2023-06-07T20:16:30.924Z,46.41
2023-06-07T20:19:02.892Z,46.50
2023-06-07T20:21:34.761Z,46.58
2023-06-07T20:24:07.751Z,46.69
2023-06-07T20:26:39.776Z,46.84
2023-06-07T20:29:14.758Z,46.79
2023-06-07T20:31:47.870Z,46.79
2023-06-07T20:34:20.604Z,46.72
2023-06-07T20:36:53.825Z,46.77
2023-06-07T20:39:26.053Z,46.69
2023-06-07T20:41:59.241Z,46.69
2023-06-07T20:44:43.990Z,46.61
2023-06-07T20:47:23.872Z,46.33
2023-06-07T20:49:55.855Z,46.34
2023-06-07T20:52:28.308Z,46.36
2023-06-07T20:55:00.483Z,46.38
2023-06-07T20:57:32.531Z,46.58
2023-06-07T21:00:07.123Z,46.60
2023-06-07T21:02:39.858Z,46.53
2023-06-07T21:05:12.470Z,46.52
2023-06-07T21:07:44.584Z,46.33
2023-06-07T21:10:16.998Z,46.21
2023-06-07T21:12:49.144Z,46.30
2023-06-07T21:15:21.618Z,46.30
2023-06-07T21:17:53.674Z,46.46
2023-06-07T21:20:25.783Z,46.63
2023-06-07T21:22:57.901Z,46.80
2023-06-07T21:25:30.077Z,47.05
2023-06-07T21:28:02.999Z,47.70
2023-06-07T21:30:35.044Z,48.40
2023-06-07T21:33:07.443Z,48.78
2023-06-07T21:35:39.390Z,48.88
2023-06-07T21:38:11.474Z,49.12
2023-06-07T21:40:43.466Z,49.02
2023-06-07T21:43:15.641Z,49.34
2023-06-07T21:45:47.595Z,49.33
2023-06-07T21:48:19.937Z,49.29
2023-06-07T21:50:52.064Z,49.37
2023-06-07T21:53:24.051Z,49.08
2023-06-07T21:55:56.195Z,48.81
2023-06-07T21:58:28.347Z,48.65
2023-06-07T22:01:00.824Z,48.68
2023-06-07T22:03:34.439Z,48.50
2023-06-07T22:06:06.624Z,48.87
2023-06-07T22:08:38.570Z,49.02
2023-06-07T22:11:10.796Z,49.18
2023-06-07T22:13:43.246Z,49.24
2023-06-07T22:16:15.372Z,49.36
2023-06-07T22:18:48.775Z,49.40
2023-06-07T22:21:24.439Z,49.46
2023-06-07T22:23:57.668Z,49.30
2023-06-07T22:26:30.523Z,49.07
2023-06-07T22:29:02.757Z,48.84
2023-06-07T22:31:34.811Z,48.91
2023-06-07T22:34:06.767Z,48.92
2023-06-07T22:36:41.868Z,48.58
2023-06-07T22:39:14.661Z,48.65
2023-06-07T22:41:46.709Z,48.66
2023-06-07T22:44:18.825Z,48.77
2023-06-07T22:46:51.320Z,49.00
2023-06-07T22:49:23.421Z,49.33
2023-06-07T22:51:55.473Z,49.41
2023-06-07T22:54:29.039Z,49.45
2023-06-07T22:57:01.133Z,49.45
2023-06-07T22:59:33.389Z,49.32
2023-06-07T23:02:06.125Z,49.29
2023-06-07T23:04:38.558Z,49.56
2023-06-07T23:07:10.662Z,49.49
2023-06-07T23:09:46.064Z,49.60
2023-06-07T23:12:18.231Z,49.43
2023-06-07T23:14:51.630Z,49.31
2023-06-07T23:17:24.293Z,49.43
2023-06-07T23:19:56.464Z,49.33
2023-06-07T23:22:28.638Z,49.17
2023-06-07T23:25:00.636Z,49.61
2023-06-07T23:27:32.894Z,50.02
2023-06-07T23:30:05.673Z,50.59
2023-06-07T23:32:38.217Z,52.17
2023-06-07T23:35:11.225Z,52.77
2023-06-07T23:37:43.466Z,51.96
2023-06-07T23:40:17.119Z,51.69
2023-06-07T23:42:52.910Z,51.11
2023-06-07T23:45:25.686Z,51.48
2023-06-07T23:47:57.870Z,52.91
2023-06-07T23:50:29.934Z,53.90
2023-06-07T23:53:04.693Z,53.52
2023-06-07T23:55:36.808Z,53.72
2023-06-07T23:58:08.936Z,54.83
